Time;durP1;ratioP1;P1;durP2;ratioP2;P2;SDS_P1;SDS_P2;PMS_P1;PMS_P2;Temp;Humidity;BMP_temperature;BMP_pressure;BME280_temperature;BME280_humidity;BME280_pressure;Samples;Min_cycle;Max_cycle;Signal;HPM_P1;HPM_P2
2024/03/04 00:00:05;;;;;;;24.90;15.30;;;;;;;5.87;67.02;99592.25;103450;1253;106604;-73
2024/03/04 00:02:32;;;;;;;30.30;16.20;;;;;;;5.86;66.77;99588.83;103359;1254;138096;-74
2024/03/04 00:04:59;;;;;;;25.80;15.90;;;;;;;5.83;66.66;99587.70;103413;1255;107974;-73
2024/03/04 00:07:26;;;;;;;25.90;15.60;;;;;;;5.81;66.79;99593.11;103373;1252;96441;-74
2024/03/04 00:09:53;;;;;;;28.60;15.10;;;;;;;5.77;66.96;99596.48;103311;1254;138127;-74
2024/03/04 00:12:21;;;;;;;30.30;16.40;;;;;;;5.72;66.91;99593.45;103430;1251;107432;-73
2024/03/04 00:14:49;;;;;;;23.70;15.50;;;;;;;5.68;66.91;99589.08;103299;1251;138141;-72
2024/03/04 00:17:16;;;;;;;27.60;15.80;;;;;;;5.66;67.18;99586.89;103412;1255;107267;-73
2024/03/04 00:19:43;;;;;;;27.10;15.10;;;;;;;5.63;67.20;99588.34;103371;1252;96516;-74
2024/03/04 00:22:10;;;;;;;20.70;14.90;;;;;;;5.59;67.18;99584.65;103272;1253;137654;-73
2024/03/04 00:24:37;;;;;;;25.80;16.10;;;;;;;5.56;67.29;99577.30;103376;1251;106913;-73
2024/03/04 00:27:04;;;;;;;27.60;15.90;;;;;;;5.50;67.33;99573.45;103316;1251;138201;-74
2024/03/04 00:29:31;;;;;;;29.30;15.60;;;;;;;5.43;67.59;99569.80;103412;1254;107165;-74
2024/03/04 00:31:58;;;;;;;24.80;16.90;;;;;;;5.38;67.64;99565.59;103319;1255;138235;-73
2024/03/04 00:34:27;;;;;;;23.50;15.80;;;;;;;5.34;67.65;99570.33;103441;1254;110127;-74
2024/03/04 00:36:54;;;;;;;25.50;16.10;;;;;;;5.27;67.73;99559.99;103420;1253;105785;-74
2024/03/04 00:39:21;;;;;;;23.30;15.30;;;;;;;5.27;67.87;99561.55;103333;1251;137969;-74
2024/03/04 00:41:49;;;;;;;27.10;16.70;;;;;;;5.21;68.06;99559.41;103392;1251;108581;-73
2024/03/04 00:44:16;;;;;;;24.00;17.10;;;;;;;5.16;67.97;99556.95;103295;1252;139904;-74
2024/03/04 00:46:43;;;;;;;27.00;17.20;;;;;;;5.12;68.06;99557.70;103396;1250;110472;-73
2024/03/04 00:49:10;;;;;;;27.70;16.70;;;;;;;5.10;68.21;99556.39;102591;1252;1002878;-75
2024/03/04 00:51:37;;;;;;;28.50;17.50;;;;;;;5.06;68.20;99552.51;103345;1251;138633;-75
2024/03/04 00:54:05;;;;;;;24.70;16.40;;;;;;;5.07;68.26;99552.32;103366;1253;107674;-75
2024/03/04 00:56:32;;;;;;;25.60;16.20;;;;;;;5.06;68.54;99553.73;103305;1251;137963;-74
2024/03/04 00:59:00;;;;;;;29.00;17.70;;;;;;;5.06;68.35;99553.39;103316;1255;110452;-73
2024/03/04 01:01:27;;;;;;;30.70;17.10;;;;;;;5.06;68.70;99554.59;103444;1255;108021;-74
2024/03/04 01:03:54;;;;;;;26.20;16.60;;;;;;;5.07;68.36;99558.86;103253;1251;138105;-74
2024/03/04 01:06:22;;;;;;;31.20;17.60;;;;;;;5.07;68.57;99560.41;103307;1251;106736;-74
2024/03/04 01:08:49;;;;;;;28.10;17.80;;;;;;;5.08;68.38;99568.16;103239;1252;138014;-72
2024/03/04 01:11:16;;;;;;;27.70;17.10;;;;;;;5.09;68.65;99566.41;103435;1251;109958;-72
2024/03/04 01:13:43;;;;;;;27.90;17.10;;;;;;;5.10;68.63;99565.35;103390;1251;106952;-73
2024/03/04 01:16:10;;;;;;;26.80;17.10;;;;;;;5.11;68.49;99558.25;103242;1256;96468;-72
2024/03/04 01:18:39;;;;;;;26.40;17.00;;;;;;;5.11;68.62;99554.14;103292;1252;105834;-72
2024/03/04 01:21:08;;;;;;;29.60;17.10;;;;;;;5.12;68.55;99555.65;103095;1255;265113;-72
2024/03/04 01:23:34;;;;;;;27.20;16.10;;;;;;;5.11;68.72;99556.71;103403;1252;110794;-72
2024/03/04 01:26:02;;;;;;;27.00;16.50;;;;;;;5.09;68.53;99553.82;103204;1251;140721;-72
2024/03/04 01:28:29;;;;;;;26.70;16.70;;;;;;;5.05;68.67;99553.05;103370;1252;97018;-72
2024/03/04 01:30:56;;;;;;;28.60;16.30;;;;;;;5.05;68.59;99552.73;103372;1251;107252;-73
2024/03/04 01:33:24;;;;;;;26.70;15.90;;;;;;;5.04;68.79;99555.33;103301;1255;138080;-72
2024/03/04 01:35:51;;;;;;;26.10;16.10;;;;;;;5.03;68.91;99559.81;103376;1251;110031;-72
2024/03/04 01:38:18;;;;;;;30.80;16.70;;;;;;;5.02;68.78;99557.76;103243;1251;138201;-72
2024/03/04 01:40:45;;;;;;;30.90;16.90;;;;;;;5.02;68.81;99561.20;103421;1251;96463;-72
2024/03/04 01:43:12;;;;;;;25.50;17.60;;;;;;;5.01;68.82;99562.42;103365;1252;107382;-72
2024/03/04 01:45:39;;;;;;;25.20;16.20;;;;;;;4.99;68.82;99558.50;103272;1252;138080;-72
2024/03/04 01:48:09;;;;;;;29.10;17.10;;;;;;;5.00;69.00;99552.63;103359;1255;108632;-73
2024/03/04 01:50:41;;;;;;;26.60;16.50;;;;;;;4.96;68.77;99542.89;103337;1251;138028;-72
2024/03/04 01:53:09;;;;;;;31.50;17.20;;;;;;;4.94;69.03;99537.27;103448;1250;97630;-74
2024/03/04 01:55:38;;;;;;;29.30;16.60;;;;;;;4.89;69.15;99537.88;102679;1255;1002941;-73
2024/03/04 01:58:08;;;;;;;27.40;16.50;;;;;;;4.82;69.22;99537.48;104237;1254;138862;-74
2024/03/04 02:00:39;;;;;;;27.00;16.00;;;;;;;4.78;69.07;99537.58;103430;1251;109275;-74
2024/03/04 02:03:09;;;;;;;25.30;16.10;;;;;;;4.75;69.27;99541.24;103328;1251;137916;-74
2024/03/04 02:05:37;;;;;;;25.10;16.40;;;;;;;4.71;69.41;99544.95;103421;1251;96319;-74
2024/03/04 02:08:04;;;;;;;27.10;16.80;;;;;;;4.68;69.46;99546.39;103266;1252;138611;-74
2024/03/04 02:10:31;;;;;;;25.90;16.10;;;;;;;4.67;69.62;99542.80;103338;1255;97544;-74
2024/03/04 02:12:58;;;;;;;24.80;16.30;;;;;;;4.69;69.44;99543.29;103454;1253;109089;-74
2024/03/04 02:15:25;;;;;;;29.50;16.60;;;;;;;4.69;69.76;99540.16;103321;1252;137927;-74
2024/03/04 02:17:52;;;;;;;30.40;17.30;;;;;;;4.70;69.62;99539.13;103517;1251;96339;-73
2024/03/04 02:20:22;;;;;;;24.30;15.80;;;;;;;4.70;69.76;99540.84;103415;1255;137957;-73
2024/03/04 02:22:49;;;;;;;24.70;16.40;;;;;;;4.70;69.83;99542.91;103467;1254;96615;-73
2024/03/04 02:25:19;;;;;;;30.80;17.00;;;;;;;4.71;70.10;99545.46;103439;1255;108910;-74
2024/03/04 02:27:46;;;;;;;27.40;17.40;;;;;;;4.70;70.09;99544.11;103230;1256;138133;-74
2024/03/04 02:30:14;;;;;;;26.30;16.30;;;;;;;4.69;69.97;99546.36;103412;1254;96965;-74
2024/03/04 02:32:42;;;;;;;27.40;16.90;;;;;;;4.71;70.19;99544.61;103745;1251;137936;-74
2024/03/04 02:35:10;;;;;;;24.80;16.00;;;;;;;4.70;70.16;99543.77;103400;1255;97271;-74
2024/03/04 02:37:38;;;;;;;33.90;17.70;;;;;;;4.70;70.48;99544.11;103359;1251;109878;-74
2024/03/04 02:40:07;;;;;;;30.20;17.90;;;;;;;4.69;70.33;99543.27;103210;1252;137877;-75
2024/03/04 02:42:34;;;;;;;27.80;17.40;;;;;;;4.71;70.50;99545.99;103434;1253;96457;-74
2024/03/04 02:45:01;;;;;;;25.60;17.40;;;;;;;4.70;70.72;99539.98;103248;1252;137759;-74
2024/03/04 02:47:28;;;;;;;27.30;17.50;;;;;;;4.68;70.49;99540.54;103342;1255;96432;-74
2024/03/04 02:49:55;;;;;;;32.20;17.30;;;;;;;4.67;70.62;99543.83;103308;1255;137870;-74
2024/03/04 02:52:22;;;;;;;29.60;17.40;;;;;;;4.63;70.77;99542.33;103473;1251;108303;-74
2024/03/04 02:54:49;;;;;;;32.80;17.30;;;;;;;4.61;70.78;99543.59;103418;1255;96480;-74
2024/03/04 02:57:17;;;;;;;32.00;17.00;;;;;;;4.60;70.83;99542.23;103322;1255;137876;-74
2024/03/04 02:59:44;;;;;;;29.80;17.10;;;;;;;4.59;71.05;99540.53;103385;1254;96538;-74
2024/03/04 03:02:11;;;;;;;25.40;16.70;;;;;;;4.58;71.08;99543.13;103352;1251;137995;-74
2024/03/04 03:04:38;;;;;;;26.80;16.60;;;;;;;4.57;71.11;99540.56;103315;1251;106497;-74
2024/03/04 03:07:05;;;;;;;26.40;17.40;;;;;;;4.56;71.27;99537.66;103429;1255;96311;-74
2024/03/04 03:09:32;;;;;;;24.60;17.30;;;;;;;4.55;71.42;99533.20;103159;1252;137869;-73
2024/03/04 03:11:59;;;;;;;25.50;17.40;;;;;;;4.54;71.67;99533.41;103244;1255;96464;-74
2024/03/04 03:14:27;;;;;;;29.20;17.40;;;;;;;4.52;71.65;99532.08;103322;1252;138201;-74
2024/03/04 03:16:54;;;;;;;31.40;17.20;;;;;;;4.50;71.66;99529.69;103399;1253;106443;-74
2024/03/04 03:19:25;;;;;;;28.10;17.00;;;;;;;4.50;71.87;99532.29;103499;1252;96971;-74
2024/03/04 03:21:53;;;;;;;31.50;16.90;;;;;;;4.50;72.15;99535.02;103288;1253;138039;-74
2024/03/04 03:24:21;;;;;;;27.60;16.70;;;;;;;4.51;72.11;99536.22;103438;1253;96442;-73
2024/03/04 03:26:48;;;;;;;29.20;17.10;;;;;;;4.51;72.31;99538.11;103353;1255;137762;-75
2024/03/04 03:29:15;;;;;;;24.50;17.50;;;;;;;4.51;72.25;99536.05;103471;1255;106906;-74
2024/03/04 03:31:42;;;;;;;25.90;16.70;;;;;;;4.51;72.20;99535.70;103458;1254;96657;-75
2024/03/04 03:34:09;;;;;;;26.20;17.20;;;;;;;4.51;72.25;99537.95;103389;1252;137701;-74
2024/03/04 03:36:40;;;;;;;29.50;17.10;;;;;;;4.52;72.47;99537.40;103476;1252;97302;-74
2024/03/04 03:39:09;;;;;;;25.80;16.60;;;;;;;4.54;72.32;99533.06;103408;1253;138130;-74
2024/03/04 03:41:36;;;;;;;26.70;16.90;;;;;;;4.56;72.28;99536.64;103358;1252;105844;-74
2024/03/04 03:44:03;;;;;;;34.00;17.50;;;;;;;4.57;72.21;99536.09;103379;1255;140207;-74
2024/03/04 03:46:30;;;;;;;29.70;17.00;;;;;;;4.57;72.26;99538.85;103408;1252;107308;-75
2024/03/04 03:48:57;;;;;;;27.60;16.70;;;;;;;4.55;72.48;99535.45;103399;1253;96316;-73
2024/03/04 03:51:24;;;;;;;25.00;17.10;;;;;;;4.54;72.31;99536.33;103301;1255;138168;-74
2024/03/04 03:53:52;;;;;;;26.10;17.40;;;;;;;4.52;72.23;99535.16;103386;1251;106645;-73
2024/03/04 03:56:19;;;;;;;29.10;17.30;;;;;;;4.51;72.47;99538.80;103309;1255;139065;-74
2024/03/04 03:58:46;;;;;;;24.50;17.30;;;;;;;4.52;72.64;99539.98;103330;1252;107699;-74
2024/03/04 04:01:13;;;;;;;25.70;16.80;;;;;;;4.50;72.57;99543.14;103453;1251;96461;-75
2024/03/04 04:03:40;;;;;;;27.40;17.60;;;;;;;4.47;72.57;99541.42;103221;1255;139050;-74
2024/03/04 04:06:08;;;;;;;24.90;16.20;;;;;;;4.47;72.75;99540.05;103379;1255;107591;-74
2024/03/04 04:08:35;;;;;;;27.90;16.70;;;;;;;4.47;72.99;99544.88;103243;1253;138088;-74
2024/03/04 04:11:02;;;;;;;30.80;17.80;;;;;;;4.46;72.83;99549.71;103360;1252;107728;-75
2024/03/04 04:13:30;;;;;;;23.50;16.80;;;;;;;4.49;72.94;99556.56;103441;1252;95229;-75
2024/03/04 04:15:58;;;;;;;31.40;17.60;;;;;;;4.53;73.20;99553.39;103365;1253;138773;-74
2024/03/04 04:18:24;;;;;;;27.70;17.30;;;;;;;4.55;73.05;99558.86;103382;1255;106572;-74
2024/03/04 04:20:52;;;;;;;30.70;18.30;;;;;;;4.54;73.23;99556.46;103355;1252;138492;-74
2024/03/04 04:23:19;;;;;;;29.30;17.40;;;;;;;4.51;72.96;99557.73;103430;1252;106731;-74
2024/03/04 04:25:46;;;;;;;24.90;17.20;;;;;;;4.51;73.36;99556.19;103460;1252;96446;-74
2024/03/04 04:28:13;;;;;;;31.20;16.70;;;;;;;4.49;73.38;99552.61;103383;1252;110240;-75
2024/03/04 04:30:40;;;;;;;24.10;17.00;;;;;;;4.46;73.38;99555.75;103350;1252;107783;-75
2024/03/04 04:33:08;;;;;;;26.90;17.20;;;;;;;4.45;73.69;99551.64;103182;1252;138170;-74
2024/03/04 04:35:35;;;;;;;28.50;17.10;;;;;;;4.44;73.48;99556.30;103309;1258;107496;-74
2024/03/04 04:38:03;;;;;;;27.40;17.40;;;;;;;4.43;73.96;99558.03;103204;1258;138134;-75
2024/03/04 04:40:31;;;;;;;24.80;17.90;;;;;;;4.43;73.97;99563.38;103323;1256;109604;-74
2024/03/04 04:42:59;;;;;;;29.40;17.70;;;;;;;4.43;74.09;99566.30;103311;1256;107061;-74
2024/03/04 04:45:26;;;;;;;26.90;18.40;;;;;;;4.43;74.19;99568.38;103232;1253;138640;-74
2024/03/04 04:47:53;;;;;;;29.20;18.30;;;;;;;4.42;74.14;99565.80;103329;1254;107244;-74
2024/03/04 04:50:21;;;;;;;25.00;17.50;;;;;;;4.43;74.35;99569.40;103274;1251;138076;-73
2024/03/04 04:52:48;;;;;;;27.50;18.60;;;;;;;4.43;74.51;99569.21;103389;1253;109718;-74
2024/03/04 04:55:15;;;;;;;31.30;17.80;;;;;;;4.44;74.32;99571.09;103413;1253;107819;-74
2024/03/04 04:57:45;;;;;;;28.30;17.90;;;;;;;4.46;74.52;99568.83;103381;1253;137961;-74
2024/03/04 05:00:14;;;;;;;28.20;18.50;;;;;;;4.48;74.35;99575.16;102601;1255;1003685;-74
2024/03/04 05:02:41;;;;;;;25.80;16.90;;;;;;;4.49;74.63;99577.05;103461;1252;138048;-74
2024/03/04 05:05:09;;;;;;;29.60;18.30;;;;;;;4.47;74.63;99577.42;103427;1253;109556;-74
2024/03/04 05:07:38;;;;;;;34.40;19.00;;;;;;;4.50;74.67;99583.05;103404;1252;107370;-74
2024/03/04 05:10:06;;;;;;;26.70;18.30;;;;;;;4.52;74.70;99583.72;103203;1255;138558;-73
2024/03/04 05:12:33;;;;;;;26.90;17.80;;;;;;;4.52;74.63;99581.64;103921;1253;107480;-74
2024/03/04 05:15:00;;;;;;;28.20;19.10;;;;;;;4.55;74.70;99580.72;103205;1252;138076;-74
2024/03/04 05:17:28;;;;;;;33.60;19.60;;;;;;;4.57;74.93;99581.55;103348;1255;109974;-76
2024/03/04 05:19:56;;;;;;;28.20;17.80;;;;;;;4.59;74.82;99583.92;103222;1254;138238;-74
2024/03/04 05:22:23;;;;;;;33.60;18.30;;;;;;;4.58;74.83;99582.56;103412;1253;96440;-74
2024/03/04 05:24:50;;;;;;;30.50;18.60;;;;;;;4.61;74.78;99584.23;103423;1253;107586;-74
2024/03/04 05:27:17;;;;;;;29.50;18.60;;;;;;;4.64;74.92;99582.77;103387;1251;138844;-74
2024/03/04 05:29:44;;;;;;;31.50;19.10;;;;;;;4.67;74.86;99579.46;103502;1254;109124;-74
2024/03/04 05:32:11;;;;;;;33.50;18.90;;;;;;;4.68;74.88;99579.28;103300;1252;138446;-74
2024/03/04 05:34:41;;;;;;;30.10;20.40;;;;;;;4.68;75.06;99579.79;103388;1255;96466;-74
2024/03/04 05:37:08;;;;;;;32.10;19.00;;;;;;;4.68;75.00;99582.73;103410;1251;107656;-74
2024/03/04 05:39:35;;;;;;;28.40;19.20;;;;;;;4.67;75.13;99579.64;103279;1255;138076;-74
2024/03/04 05:42:02;;;;;;;29.10;19.20;;;;;;;4.68;75.05;99579.11;103467;1253;110701;-74
2024/03/04 05:44:29;;;;;;;28.70;19.20;;;;;;;4.70;74.81;99578.73;103292;1255;138376;-74
2024/03/04 05:46:56;;;;;;;30.30;19.90;;;;;;;4.74;75.11;99577.09;103439;1253;98307;-75
2024/03/04 05:49:23;;;;;;;33.50;20.30;;;;;;;4.77;74.85;99578.92;103365;1253;107759;-75
2024/03/04 05:51:52;;;;;;;29.30;19.80;;;;;;;4.79;75.00;99579.05;103328;1253;138711;-75
2024/03/04 05:54:19;;;;;;;33.50;20.30;;;;;;;4.85;75.09;99588.42;103356;1253;109888;-74
2024/03/04 05:56:46;;;;;;;32.70;20.80;;;;;;;4.85;75.08;99587.89;103308;1255;138472;-74
2024/03/04 05:59:14;;;;;;;30.60;20.50;;;;;;;4.86;75.28;99594.27;103441;1258;96436;-74
2024/03/04 06:01:42;;;;;;;29.90;19.60;;;;;;;4.84;75.27;99592.55;103399;1252;107007;-73
2024/03/04 06:04:09;;;;;;;29.80;19.80;;;;;;;4.82;75.35;99600.17;103375;1255;137804;-74
2024/03/04 06:06:36;;;;;;;31.00;19.50;;;;;;;4.81;75.44;99598.13;103399;1251;109203;-77
2024/03/04 06:09:06;;;;;;;28.40;20.20;;;;;;;4.79;75.67;99596.27;103291;1255;138252;-74
2024/03/04 06:11:33;;;;;;;28.00;20.30;;;;;;;4.77;75.53;99598.37;103351;1256;96531;-74
2024/03/04 06:14:00;;;;;;;31.20;20.70;;;;;;;4.77;75.81;99602.86;103245;1253;137950;-75
2024/03/04 06:16:27;;;;;;;32.70;19.60;;;;;;;4.75;75.68;99606.17;103354;1255;96398;-75
2024/03/04 06:18:54;;;;;;;30.80;20.70;;;;;;;4.76;75.87;99612.02;103494;1255;109502;-75
2024/03/04 06:21:21;;;;;;;31.10;21.30;;;;;;;4.76;75.80;99615.97;103261;1253;137964;-74
2024/03/04 06:23:48;;;;;;;29.70;19.90;;;;;;;4.77;75.89;99612.17;103412;1256;96434;-74
2024/03/04 06:26:15;;;;;;;32.10;19.80;;;;;;;4.80;75.84;99611.76;103329;1252;138055;-75
2024/03/04 06:28:42;;;;;;;33.50;19.80;;;;;;;4.84;75.96;99609.64;103312;1253;96460;-75
2024/03/04 06:31:11;;;;;;;29.70;20.40;;;;;;;4.89;75.80;99614.87;103410;1254;108897;-74
2024/03/04 06:33:38;;;;;;;30.30;20.70;;;;;;;4.90;75.94;99612.78;103231;1256;137950;-72
2024/03/04 06:36:19;;;;;;;28.20;20.30;;;;;;;4.94;75.90;99617.19;103380;1255;96331;-75
2024/03/04 06:38:46;;;;;;;31.80;20.60;;;;;;;4.98;75.89;99611.94;103282;1251;138489;-74
2024/03/04 06:41:13;;;;;;;33.90;20.40;;;;;;;5.02;75.81;99617.37;103292;1255;96489;-73
2024/03/04 06:43:40;;;;;;;31.30;19.30;;;;;;;5.06;75.79;99615.24;103098;1253;109524;-73
2024/03/04 06:46:08;;;;;;;29.00;20.00;;;;;;;5.06;75.80;99610.59;103186;1253;138411;-74
2024/03/04 06:48:35;;;;;;;30.40;20.70;;;;;;;5.06;75.73;99608.85;103336;1252;96855;-74
2024/03/04 06:51:03;;;;;;;30.60;20.30;;;;;;;5.08;75.58;99608.48;103125;1251;139239;-74
2024/03/04 06:53:30;;;;;;;30.80;20.50;;;;;;;5.11;75.81;99610.98;103261;1253;97472;-74
2024/03/04 06:55:57;;;;;;;30.60;20.20;;;;;;;5.12;75.78;99610.11;103185;1255;138691;-73
2024/03/04 06:58:24;;;;;;;30.50;20.20;;;;;;;5.12;75.60;99611.65;102796;1251;106801;-73
2024/03/04 07:00:52;;;;;;;31.10;21.20;;;;;;;5.13;75.90;99609.39;103150;1255;96446;-71
2024/03/04 07:03:19;;;;;;;31.80;19.70;;;;;;;5.11;75.74;99603.58;103092;1255;138072;-73
2024/03/04 07:05:46;;;;;;;34.80;20.20;;;;;;;5.10;75.47;99596.88;103171;1255;96459;-72
2024/03/04 07:08:13;;;;;;;33.20;20.00;;;;;;;5.17;75.73;99600.35;103162;1255;137961;-72
2024/03/04 07:10:40;;;;;;;31.40;19.90;;;;;;;5.24;75.43;99598.84;103277;1255;107665;-74
2024/03/04 07:13:07;;;;;;;32.70;20.80;;;;;;;5.34;75.38;99600.70;103323;1255;96905;-74
2024/03/04 07:15:34;;;;;;;32.50;21.30;;;;;;;5.44;74.95;99607.21;103082;1253;137760;-71
2024/03/04 07:18:01;;;;;;;26.90;19.30;;;;;;;5.55;74.92;99605.23;103220;1255;96454;-72
2024/03/04 07:20:28;;;;;;;30.60;20.40;;;;;;;5.63;74.73;99608.00;103526;1255;139020;-72
2024/03/04 07:22:56;;;;;;;26.60;19.50;;;;;;;5.68;74.51;99603.20;104556;1252;107469;-74
2024/03/04 07:25:23;;;;;;;30.60;20.40;;;;;;;5.78;74.36;99606.80;104539;1255;96710;-71
2024/03/04 07:27:50;;;;;;;33.80;20.30;;;;;;;5.85;74.11;99605.59;103040;1253;137798;-72
2024/03/04 07:30:18;;;;;;;27.60;20.80;;;;;;;5.89;73.93;99609.47;101655;1256;1003393;-76
2024/03/04 07:32:45;;;;;;;30.80;20.70;;;;;;;5.94;73.87;99613.69;102994;1255;139043;-77
2024/03/04 07:35:12;;;;;;;29.10;20.40;;;;;;;5.97;73.63;99615.36;103082;1255;106807;-76
2024/03/04 07:37:39;;;;;;;26.80;19.70;;;;;;;5.97;73.40;99614.33;103218;1255;96563;-75
2024/03/04 07:40:10;;;;;;;31.70;20.40;;;;;;;5.97;73.36;99617.08;103071;1253;137643;-74
2024/03/04 07:42:38;;;;;;;35.90;21.20;;;;;;;6.02;73.54;99617.47;104582;1253;95320;-74
2024/03/04 07:45:06;;;;;;;29.40;20.90;;;;;;;6.04;73.12;99617.08;103540;1255;139638;-76
2024/03/04 07:47:33;;;;;;;30.20;19.80;;;;;;;6.01;73.19;99616.63;103291;1253;106905;-76
2024/03/04 07:50:00;;;;;;;32.70;21.20;;;;;;;6.00;73.09;99618.56;103049;1253;139872;-75
2024/03/04 07:52:27;;;;;;;34.40;20.10;;;;;;;6.01;73.11;99618.02;103094;1255;107493;-74
2024/03/04 07:54:55;;;;;;;30.70;21.00;;;;;;;6.03;73.28;99622.96;103289;1255;96443;-77
2024/03/04 07:57:22;;;;;;;29.20;20.90;;;;;;;6.05;73.17;99625.69;103170;1255;138330;-76
2024/03/04 07:59:51;;;;;;;29.90;20.90;;;;;;;6.02;73.01;99631.60;103219;1256;107619;-76
2024/03/04 08:02:18;;;;;;;33.60;21.70;;;;;;;5.95;72.81;99632.83;103049;1255;138405;-76
2024/03/04 08:04:46;;;;;;;32.20;20.90;;;;;;;5.89;73.06;99637.23;103186;1255;107660;-76
2024/03/04 08:07:13;;;;;;;34.20;20.90;;;;;;;5.86;73.06;99633.52;103123;1252;96448;-76
2024/03/04 08:09:41;;;;;;;30.80;21.60;;;;;;;5.84;73.19;99634.25;103038;1252;139266;-74
2024/03/04 08:12:10;;;;;;;32.00;20.90;;;;;;;5.82;73.36;99637.08;103147;1257;108348;-74
2024/03/04 08:14:38;;;;;;;33.10;21.20;;;;;;;5.76;73.31;99638.59;103103;1252;139689;-75
2024/03/04 08:17:05;;;;;;;34.70;21.20;;;;;;;5.72;73.58;99639.52;103136;1257;108475;-74
2024/03/04 08:19:32;;;;;;;30.30;20.90;;;;;;;5.69;73.59;99645.63;103209;1257;96444;-75
2024/03/04 08:21:59;;;;;;;35.60;21.70;;;;;;;5.68;73.86;99643.76;103114;1256;138741;-76
2024/03/04 08:24:26;;;;;;;38.70;22.90;;;;;;;5.68;74.00;99648.23;103148;1266;107160;-75
2024/03/04 08:26:54;;;;;;;37.70;22.50;;;;;;;5.68;74.07;99651.33;102931;1254;139821;-74
2024/03/04 08:29:21;;;;;;;37.20;22.40;;;;;;;5.68;74.04;99649.95;103080;1251;107429;-73
2024/03/04 08:31:48;;;;;;;31.10;21.50;;;;;;;5.68;74.09;99646.69;103140;1257;96460;-75
2024/03/04 08:34:15;;;;;;;35.70;23.10;;;;;;;5.70;74.27;99643.70;103111;1256;110245;-76
2024/03/04 08:36:43;;;;;;;33.00;22.50;;;;;;;5.75;74.11;99649.13;103146;1257;108795;-75
2024/03/04 08:39:10;;;;;;;31.60;21.90;;;;;;;5.77;74.30;99645.81;103041;1257;138484;-74
2024/03/04 08:41:46;;;;;;;36.20;23.10;;;;;;;5.81;74.11;99644.50;103155;1254;107660;-74
2024/03/04 08:44:13;;;;;;;42.10;22.90;;;;;;;5.89;74.18;99643.83;104442;1257;138805;-73
2024/03/04 08:46:41;;;;;;;35.50;22.20;;;;;;;5.98;74.17;99653.80;103386;1255;110016;-73
2024/03/04 08:49:08;;;;;;;33.00;21.10;;;;;;;6.03;73.88;99655.40;103148;1257;108001;-74
2024/03/04 08:51:35;;;;;;;34.80;22.40;;;;;;;6.03;73.48;99658.35;102934;1258;138495;-76
2024/03/04 08:54:02;;;;;;;34.60;22.60;;;;;;;6.04;73.66;99656.60;103070;1257;107701;-75
2024/03/04 08:56:30;;;;;;;30.90;21.20;;;;;;;6.06;73.69;99653.10;103036;1256;138394;-76
2024/03/04 08:58:59;;;;;;;34.60;23.00;;;;;;;6.05;73.54;99653.80;103061;1257;109872;-76
2024/03/04 09:01:26;;;;;;;37.20;23.70;;;;;;;6.04;73.39;99651.42;103117;1257;108352;-74
2024/03/04 09:03:54;;;;;;;35.20;22.60;;;;;;;6.01;73.46;99649.24;102839;1256;138467;-75
2024/03/04 09:06:21;;;;;;;31.90;22.50;;;;;;;5.99;73.42;99650.16;103203;1256;109621;-75
2024/03/04 09:08:49;;;;;;;39.20;23.10;;;;;;;5.97;73.65;99642.45;103081;1255;138056;-75
2024/03/04 09:11:16;;;;;;;32.30;24.20;;;;;;;6.02;73.78;99645.24;103217;1251;110639;-74
2024/03/04 09:13:44;;;;;;;36.00;22.90;;;;;;;6.07;73.84;99644.46;103230;1251;106841;-74
2024/03/04 09:16:11;;;;;;;43.20;22.30;;;;;;;6.12;73.80;99643.66;103137;1251;137855;-75
2024/03/04 09:18:41;;;;;;;37.80;24.40;;;;;;;6.14;73.70;99640.52;103195;1256;107391;-74
2024/03/04 09:21:08;;;;;;;35.80;23.10;;;;;;;6.16;73.67;99641.16;103115;1251;138865;-74
2024/03/04 09:23:36;;;;;;;35.20;22.90;;;;;;;6.20;73.72;99643.28;103225;1256;109900;-75
2024/03/04 09:26:03;;;;;;;32.70;22.50;;;;;;;6.31;73.96;99644.39;103112;1255;138265;-75
2024/03/04 09:28:30;;;;;;;33.50;22.70;;;;;;;6.45;74.02;99641.10;103072;1251;97066;-73
2024/03/04 09:30:57;;;;;;;36.40;22.30;;;;;;;6.60;73.81;99642.80;103196;1257;105915;-69
2024/03/04 09:33:24;;;;;;;34.40;23.60;;;;;;;6.74;73.52;99642.44;103187;1251;138633;-70
2024/03/04 09:35:51;;;;;;;34.10;22.90;;;;;;;6.87;73.20;99649.86;103122;1255;110635;-70
2024/03/04 09:38:18;;;;;;;32.10;20.90;;;;;;;6.92;72.88;99649.73;102912;1253;138398;-71
2024/03/04 09:40:46;;;;;;;31.70;22.60;;;;;;;6.93;72.55;99653.17;103124;1255;97067;-70
2024/03/04 09:43:18;;;;;;;31.00;23.10;;;;;;;6.90;72.38;99649.62;103125;1256;108176;-72
2024/03/04 09:45:48;;;;;;;34.80;22.70;;;;;;;6.90;72.66;99646.16;103062;1256;139627;-71
2024/03/04 09:48:17;;;;;;;31.40;21.40;;;;;;;6.99;73.01;99648.85;103230;1251;109127;-69
2024/03/04 09:50:45;;;;;;;35.10;21.90;;;;;;;7.13;72.90;99649.86;103081;1251;137988;-69
2024/03/04 09:53:13;;;;;;;33.70;21.60;;;;;;;7.25;72.49;99646.56;103228;1255;96550;-69
2024/03/04 09:55:40;;;;;;;35.80;22.00;;;;;;;7.38;72.33;99646.39;103273;1251;107043;-69
2024/03/04 09:58:08;;;;;;;32.90;22.30;;;;;;;7.52;72.25;99645.97;103055;1257;138484;-70
2024/03/04 10:00:38;;;;;;;33.00;21.70;;;;;;;7.65;71.88;99642.84;103133;1256;111410;-70
2024/03/04 10:03:10;;;;;;;36.50;22.30;;;;;;;7.75;71.68;99652.20;103085;1257;138419;-70
2024/03/04 10:05:37;;;;;;;38.80;23.30;;;;;;;7.76;71.00;99654.95;103162;1257;96903;-71
2024/03/04 10:08:06;;;;;;;30.20;21.70;;;;;;;7.77;70.93;99654.41;103105;1256;138496;-71
2024/03/04 10:10:33;;;;;;;38.50;22.60;;;;;;;7.77;70.54;99650.10;103262;1257;96451;-71
2024/03/04 10:13:00;;;;;;;38.10;22.60;;;;;;;7.73;70.45;99647.79;103264;1251;109252;-70
2024/03/04 10:15:29;;;;;;;35.40;22.30;;;;;;;7.77;70.76;99651.30;103090;1251;138168;-70
2024/03/04 10:18:09;;;;;;;39.40;23.50;;;;;;;7.87;70.82;99657.72;103147;1256;96329;-71
2024/03/04 10:20:37;;;;;;;42.80;24.10;;;;;;;7.89;70.01;99660.80;103165;1251;137838;-70
2024/03/04 10:23:05;;;;;;;37.20;23.20;;;;;;;7.74;69.73;99664.88;103273;1256;96352;-70
2024/03/04 10:25:33;;;;;;;37.80;23.20;;;;;;;7.56;69.68;99665.23;103294;1251;109553;-70
2024/03/04 10:28:01;;;;;;;35.70;24.30;;;;;;;7.42;70.12;99667.05;103099;1251;138151;-68
2024/03/04 10:30:28;;;;;;;36.80;23.60;;;;;;;7.34;70.37;99670.72;103386;1257;96530;-70
2024/03/04 10:32:57;;;;;;;34.40;23.40;;;;;;;7.28;70.81;99669.83;103022;1251;138032;-69
2024/03/04 10:35:25;;;;;;;42.40;24.10;;;;;;;7.23;70.95;99671.38;103246;1251;96326;-68
2024/03/04 10:37:53;;;;;;;43.80;24.60;;;;;;;7.18;71.09;99676.68;103716;1255;137980;-68
2024/03/04 10:40:22;;;;;;;40.20;24.60;;;;;;;7.17;71.40;99673.25;103983;1251;106729;-69
2024/03/04 10:42:50;;;;;;;37.20;23.40;;;;;;;7.17;71.34;99676.36;103686;1251;96484;-68
2024/03/04 10:45:17;;;;;;;38.90;24.80;;;;;;;7.13;71.40;99675.28;103407;1255;138273;-69
2024/03/04 10:47:45;;;;;;;40.00;26.00;;;;;;;7.10;71.52;99675.00;103870;1254;95389;-70
2024/03/04 10:50:14;;;;;;;44.30;24.20;;;;;;;7.08;71.50;99675.58;103572;1251;138124;-69
2024/03/04 10:52:43;;;;;;;38.20;24.70;;;;;;;7.07;71.53;99674.05;103767;1251;107064;-70
2024/03/04 10:55:13;;;;;;;38.30;24.20;;;;;;;7.07;71.59;99674.06;103704;1255;96582;-69
2024/03/04 10:57:45;;;;;;;38.40;25.60;;;;;;;7.01;71.71;99671.77;104290;1251;138685;-70
2024/03/04 11:00:25;;;;;;;43.50;26.30;;;;;;;7.00;71.48;99676.48;103452;1256;96475;-69
2024/03/04 11:03:03;;;;;;;41.00;25.20;;;;;;;6.99;71.66;99669.77;103413;1251;138145;-70
2024/03/04 11:05:32;;;;;;;37.80;23.70;;;;;;;7.00;71.93;99668.70;103893;1257;106840;-70
2024/03/04 11:08:04;;;;;;;41.40;24.80;;;;;;;7.03;71.94;99665.36;104223;1255;138925;-70
2024/03/04 11:10:35;;;;;;;35.40;25.10;;;;;;;7.02;71.73;99667.97;103342;1255;107300;-70
2024/03/04 11:13:14;;;;;;;44.50;24.40;;;;;;;7.02;72.05;99663.81;103437;1256;96439;-70